Tihoreck, Russia
Current Conditions -  °F | °C
As of 12:30 PM on Friday 28 Nov 2014 (Local Time) from URKK Reporting Station
Broken Clouds Broken Clouds  
Wind Chill: 36°   Ceiling: 4800
Heat Index: 39°   Visibility: 6mi
Dew Point: 30°   Wind: 4mph
Humidity: 70%   Direction: 60°ENE
Pressure: 30.33"   Gusts: NA
Location:  45.85°N, 40.13°E
Report Text: URKK 280930Z 06002MPS 030V110 9999 BKN048 04/M01 Q1027 TEMPO2000 -SHRA BR BKN020CB RMK QFE767 SC060
Loading
Personal Weather Stations






























Interactive Weather Map New forecast layout! Learn more

10-Day Weather Forecast

Advertisements
Track Severe Weather on mobile